sensor_id;sensor_type;location;lat;lon;timestamp;temperature;humidity
14924;DHT22;7554;43.600;1.480;2023-04-24T00:02:01;11.80;99.90
14924;DHT22;7554;43.600;1.480;2023-04-24T00:04:29;11.90;99.90
14924;DHT22;7554;43.600;1.480;2023-04-24T00:06:57;11.80;99.90
14924;DHT22;7554;43.600;1.480;2023-04-24T00:09:25;11.80;99.90
14924;DHT22;7554;43.600;1.480;2023-04-24T00:11:53;11.80;99.90
14924;DHT22;7554;43.600;1.480;2023-04-24T00:14:23;11.80;99.90
14924;DHT22;7554;43.600;1.480;2023-04-24T00:16:50;11.70;99.90
14924;DHT22;7554;43.600;1.480;2023-04-24T00:19:18;11.60;99.90
14924;DHT22;7554;43.600;1.480;2023-04-24T00:21:47;11.50;99.90
14924;DHT22;7554;43.600;1.480;2023-04-24T00:24:15;11.50;99.90
14924;DHT22;7554;43.600;1.480;2023-04-24T00:26:43;11.60;99.90
14924;DHT22;7554;43.600;1.480;2023-04-24T00:29:10;11.70;99.90
14924;DHT22;7554;43.600;1.480;2023-04-24T00:31:39;11.80;99.90
14924;DHT22;7554;43.600;1.480;2023-04-24T00:34:06;11.80;99.90
14924;DHT22;7554;43.600;1.480;2023-04-24T00:36:34;11.80;99.90
14924;DHT22;7554;43.600;1.480;2023-04-24T00:39:01;11.60;99.90
14924;DHT22;7554;43.600;1.480;2023-04-24T00:41:29;11.50;99.90
14924;DHT22;7554;43.600;1.480;2023-04-24T00:43:58;11.40;99.90
14924;DHT22;7554;43.600;1.480;2023-04-24T00:46:25;11.40;99.90
14924;DHT22;7554;43.600;1.480;2023-04-24T00:48:56;11.30;99.90
14924;DHT22;7554;43.600;1.480;2023-04-24T00:51:23;11.30;99.90
14924;DHT22;7554;43.600;1.480;2023-04-24T00:53:50;11.20;99.90
14924;DHT22;7554;43.600;1.480;2023-04-24T00:56:18;11.20;99.90
14924;DHT22;7554;43.600;1.480;2023-04-24T00:58:46;11.20;99.90
14924;DHT22;7554;43.600;1.480;2023-04-24T01:01:14;11.20;99.90
14924;DHT22;7554;43.600;1.480;2023-04-24T01:03:41;11.10;99.90
14924;DHT22;7554;43.600;1.480;2023-04-24T01:06:10;11.10;99.90
14924;DHT22;7554;43.600;1.480;2023-04-24T01:08:38;11.10;99.90
14924;DHT22;7554;43.600;1.480;2023-04-24T01:11:06;11.10;99.90
14924;DHT22;7554;43.600;1.480;2023-04-24T01:13:34;11.00;99.90
14924;DHT22;7554;43.600;1.480;2023-04-24T01:16:01;11.00;99.90
14924;DHT22;7554;43.600;1.480;2023-04-24T01:18:29;11.00;99.90
14924;DHT22;7554;43.600;1.480;2023-04-24T01:20:58;11.00;99.90
14924;DHT22;7554;43.600;1.480;2023-04-24T01:23:27;11.00;99.90
14924;DHT22;7554;43.600;1.480;2023-04-24T01:25:54;11.00;99.90
14924;DHT22;7554;43.600;1.480;2023-04-24T01:28:22;11.00;99.90
14924;DHT22;7554;43.600;1.480;2023-04-24T01:30:50;11.00;99.90
14924;DHT22;7554;43.600;1.480;2023-04-24T01:33:18;11.10;99.90
14924;DHT22;7554;43.600;1.480;2023-04-24T01:35:46;11.20;99.90
14924;DHT22;7554;43.600;1.480;2023-04-24T01:38:13;11.20;99.90
14924;DHT22;7554;43.600;1.480;2023-04-24T01:40:42;11.10;99.90
14924;DHT22;7554;43.600;1.480;2023-04-24T01:43:10;11.20;99.90
14924;DHT22;7554;43.600;1.480;2023-04-24T01:45:38;11.20;99.90
14924;DHT22;7554;43.600;1.480;2023-04-24T01:48:06;11.10;99.90
14924;DHT22;7554;43.600;1.480;2023-04-24T01:50:34;11.10;99.90
14924;DHT22;7554;43.600;1.480;2023-04-24T01:53:01;11.20;99.90
14924;DHT22;7554;43.600;1.480;2023-04-24T01:55:29;11.20;99.90
14924;DHT22;7554;43.600;1.480;2023-04-24T01:57:57;11.30;99.90
14924;DHT22;7554;43.600;1.480;2023-04-24T02:00:26;11.30;99.90
14924;DHT22;7554;43.600;1.480;2023-04-24T02:02:53;11.30;99.90
14924;DHT22;7554;43.600;1.480;2023-04-24T02:05:21;11.20;99.90
14924;DHT22;7554;43.600;1.480;2023-04-24T02:07:48;11.10;99.90
14924;DHT22;7554;43.600;1.480;2023-04-24T02:10:16;11.00;99.90
14924;DHT22;7554;43.600;1.480;2023-04-24T02:12:43;11.00;99.90
14924;DHT22;7554;43.600;1.480;2023-04-24T02:15:12;11.00;99.90
14924;DHT22;7554;43.600;1.480;2023-04-24T02:17:40;10.90;99.90
14924;DHT22;7554;43.600;1.480;2023-04-24T02:20:08;11.00;99.90
14924;DHT22;7554;43.600;1.480;2023-04-24T02:22:35;11.00;99.90
14924;DHT22;7554;43.600;1.480;2023-04-24T02:25:03;11.00;99.90
14924;DHT22;7554;43.600;1.480;2023-04-24T02:27:30;11.00;99.90
14924;DHT22;7554;43.600;1.480;2023-04-24T02:29:58;11.00;99.90
14924;DHT22;7554;43.600;1.480;2023-04-24T02:32:26;11.00;99.90
14924;DHT22;7554;43.600;1.480;2023-04-24T02:34:54;11.00;99.90
14924;DHT22;7554;43.600;1.480;2023-04-24T02:37:21;10.90;99.90
14924;DHT22;7554;43.600;1.480;2023-04-24T02:39:48;10.90;99.90
14924;DHT22;7554;43.600;1.480;2023-04-24T02:42:16;10.90;99.90
14924;DHT22;7554;43.600;1.480;2023-04-24T02:44:43;10.90;99.90
14924;DHT22;7554;43.600;1.480;2023-04-24T02:47:10;10.90;99.90
14924;DHT22;7554;43.600;1.480;2023-04-24T02:49:39;11.00;99.90
14924;DHT22;7554;43.600;1.480;2023-04-24T02:52:07;11.10;99.90
14924;DHT22;7554;43.600;1.480;2023-04-24T02:54:34;11.10;99.90
14924;DHT22;7554;43.600;1.480;2023-04-24T02:57:02;11.00;99.90
14924;DHT22;7554;43.600;1.480;2023-04-24T02:59:29;11.20;99.90
14924;DHT22;7554;43.600;1.480;2023-04-24T03:01:57;11.20;99.90
14924;DHT22;7554;43.600;1.480;2023-04-24T03:04:25;11.20;99.90
14924;DHT22;7554;43.600;1.480;2023-04-24T03:06:54;11.20;99.90
14924;DHT22;7554;43.600;1.480;2023-04-24T03:09:22;11.30;1.00
14924;DHT22;7554;43.600;1.480;2023-04-24T03:11:49;11.30;1.00
14924;DHT22;7554;43.600;1.480;2023-04-24T03:14:17;11.30;1.00
14924;DHT22;7554;43.600;1.480;2023-04-24T03:16:44;11.30;83.40
14924;DHT22;7554;43.600;1.480;2023-04-24T03:19:11;11.20;99.90
14924;DHT22;7554;43.600;1.480;2023-04-24T03:21:39;11.20;99.90
14924;DHT22;7554;43.600;1.480;2023-04-24T03:24:17;11.20;1.00
14924;DHT22;7554;43.600;1.480;2023-04-24T03:26:44;11.20;1.00
14924;DHT22;7554;43.600;1.480;2023-04-24T03:29:11;11.30;99.90
14924;DHT22;7554;43.600;1.480;2023-04-24T03:31:39;11.30;1.00
14924;DHT22;7554;43.600;1.480;2023-04-24T03:34:06;11.30;99.90
14924;DHT22;7554;43.600;1.480;2023-04-24T03:36:33;11.30;1.00
14924;DHT22;7554;43.600;1.480;2023-04-24T03:39:01;11.30;1.00
14924;DHT22;7554;43.600;1.480;2023-04-24T03:41:30;11.20;1.00
14924;DHT22;7554;43.600;1.480;2023-04-24T03:43:57;11.00;1.00
14924;DHT22;7554;43.600;1.480;2023-04-24T03:46:24;10.90;99.90
14924;DHT22;7554;43.600;1.480;2023-04-24T03:48:52;10.90;1.00
14924;DHT22;7554;43.600;1.480;2023-04-24T03:51:19;10.80;1.00
14924;DHT22;7554;43.600;1.480;2023-04-24T03:53:46;10.80;1.00
14924;DHT22;7554;43.600;1.480;2023-04-24T03:56:14;10.80;99.90
14924;DHT22;7554;43.600;1.480;2023-04-24T03:58:42;10.90;9.00
14924;DHT22;7554;43.600;1.480;2023-04-24T04:01:10;11.00;1.00
14924;DHT22;7554;43.600;1.480;2023-04-24T04:03:37;11.10;1.00
14924;DHT22;7554;43.600;1.480;2023-04-24T04:06:05;11.10;1.00
14924;DHT22;7554;43.600;1.480;2023-04-24T04:08:33;11.20;1.00
14924;DHT22;7554;43.600;1.480;2023-04-24T04:11:00;11.20;99.90
14924;DHT22;7554;43.600;1.480;2023-04-24T04:13:27;11.30;99.90
14924;DHT22;7554;43.600;1.480;2023-04-24T04:15:56;11.30;99.90
14924;DHT22;7554;43.600;1.480;2023-04-24T04:18:24;11.30;99.90
14924;DHT22;7554;43.600;1.480;2023-04-24T04:20:51;11.20;99.90
14924;DHT22;7554;43.600;1.480;2023-04-24T04:23:19;11.30;99.90
14924;DHT22;7554;43.600;1.480;2023-04-24T04:25:46;11.20;99.90
14924;DHT22;7554;43.600;1.480;2023-04-24T04:28:13;11.30;99.90
14924;DHT22;7554;43.600;1.480;2023-04-24T04:30:41;11.30;99.90
14924;DHT22;7554;43.600;1.480;2023-04-24T04:33:10;11.30;99.90
14924;DHT22;7554;43.600;1.480;2023-04-24T04:35:37;11.20;99.90
14924;DHT22;7554;43.600;1.480;2023-04-24T04:38:05;11.10;99.90
14924;DHT22;7554;43.600;1.480;2023-04-24T04:40:34;11.10;99.90
14924;DHT22;7554;43.600;1.480;2023-04-24T04:43:01;11.10;99.90
14924;DHT22;7554;43.600;1.480;2023-04-24T04:45:29;11.00;75.50
14924;DHT22;7554;43.600;1.480;2023-04-24T04:47:56;11.00;36.40
14924;DHT22;7554;43.600;1.480;2023-04-24T04:50:25;10.90;1.50
14924;DHT22;7554;43.600;1.480;2023-04-24T04:52:52;10.90;1.00
14924;DHT22;7554;43.600;1.480;2023-04-24T04:55:19;10.90;1.00
14924;DHT22;7554;43.600;1.480;2023-04-24T04:57:47;10.80;1.00
14924;DHT22;7554;43.600;1.480;2023-04-24T05:00:14;10.90;1.00
14924;DHT22;7554;43.600;1.480;2023-04-24T05:02:42;10.90;1.00
14924;DHT22;7554;43.600;1.480;2023-04-24T05:05:09;11.00;1.00
14924;DHT22;7554;43.600;1.480;2023-04-24T05:07:38;11.10;1.00
14924;DHT22;7554;43.600;1.480;2023-04-24T05:10:07;11.10;1.00
14924;DHT22;7554;43.600;1.480;2023-04-24T05:12:34;11.20;1.00
14924;DHT22;7554;43.600;1.480;2023-04-24T05:15:01;11.30;1.00
14924;DHT22;7554;43.600;1.480;2023-04-24T05:17:29;11.30;1.00
14924;DHT22;7554;43.600;1.480;2023-04-24T05:19:57;11.40;1.00
14924;DHT22;7554;43.600;1.480;2023-04-24T05:22:24;11.40;1.00
14924;DHT22;7554;43.600;1.480;2023-04-24T05:24:53;11.40;1.00
14924;DHT22;7554;43.600;1.480;2023-04-24T05:27:20;11.50;1.00
14924;DHT22;7554;43.600;1.480;2023-04-24T05:29:48;11.60;1.00
14924;DHT22;7554;43.600;1.480;2023-04-24T05:32:15;11.60;1.00
14924;DHT22;7554;43.600;1.480;2023-04-24T05:34:42;11.60;1.00
14924;DHT22;7554;43.600;1.480;2023-04-24T05:37:10;11.70;99.90
14924;DHT22;7554;43.600;1.480;2023-04-24T05:39:37;11.80;99.90
14924;DHT22;7554;43.600;1.480;2023-04-24T05:42:06;11.90;99.90
14924;DHT22;7554;43.600;1.480;2023-04-24T05:44:33;12.00;99.90
14924;DHT22;7554;43.600;1.480;2023-04-24T05:47:00;12.20;99.90
14924;DHT22;7554;43.600;1.480;2023-04-24T05:49:28;12.30;99.90
14924;DHT22;7554;43.600;1.480;2023-04-24T05:51:55;12.40;99.90
14924;DHT22;7554;43.600;1.480;2023-04-24T05:54:23;12.60;99.90
14924;DHT22;7554;43.600;1.480;2023-04-24T05:56:50;12.60;90.90
14924;DHT22;7554;43.600;1.480;2023-04-24T05:59:21;13.00;58.90
14924;DHT22;7554;43.600;1.480;2023-04-24T06:01:49;13.30;35.50
14924;DHT22;7554;43.600;1.480;2023-04-24T06:04:16;13.20;20.90
14924;DHT22;7554;43.600;1.480;2023-04-24T06:06:43;13.10;15.40
14924;DHT22;7554;43.600;1.480;2023-04-24T06:09:11;13.00;8.20
14924;DHT22;7554;43.600;1.480;2023-04-24T06:11:38;12.90;5.90
14924;DHT22;7554;43.600;1.480;2023-04-24T06:14:05;12.90;2.10
14924;DHT22;7554;43.600;1.480;2023-04-24T06:16:34;12.90;1.00
14924;DHT22;7554;43.600;1.480;2023-04-24T06:19:02;12.80;1.00
14924;DHT22;7554;43.600;1.480;2023-04-24T06:21:29;12.80;1.00
14924;DHT22;7554;43.600;1.480;2023-04-24T06:23:57;12.80;1.00
14924;DHT22;7554;43.600;1.480;2023-04-24T06:26:24;12.80;1.00
14924;DHT22;7554;43.600;1.480;2023-04-24T06:28:52;12.90;1.00
14924;DHT22;7554;43.600;1.480;2023-04-24T06:31:21;12.90;1.00
14924;DHT22;7554;43.600;1.480;2023-04-24T06:33:49;12.90;1.00
14924;DHT22;7554;43.600;1.480;2023-04-24T06:36:17;12.80;1.00
14924;DHT22;7554;43.600;1.480;2023-04-24T06:38:44;12.80;1.00
14924;DHT22;7554;43.600;1.480;2023-04-24T06:41:12;12.70;1.00
14924;DHT22;7554;43.600;1.480;2023-04-24T06:43:39;12.70;1.00
14924;DHT22;7554;43.600;1.480;2023-04-24T06:46:07;12.80;1.00
14924;DHT22;7554;43.600;1.480;2023-04-24T06:48:34;12.90;1.00
14924;DHT22;7554;43.600;1.480;2023-04-24T06:51:03;13.10;1.00
14924;DHT22;7554;43.600;1.480;2023-04-24T06:53:30;13.30;1.00
14924;DHT22;7554;43.600;1.480;2023-04-24T06:55:58;13.20;1.00
14924;DHT22;7554;43.600;1.480;2023-04-24T06:58:25;13.10;1.00
14924;DHT22;7554;43.600;1.480;2023-04-24T07:00:52;13.20;1.00
14924;DHT22;7554;43.600;1.480;2023-04-24T07:03:20;13.30;1.00
14924;DHT22;7554;43.600;1.480;2023-04-24T07:05:47;13.50;1.00
14924;DHT22;7554;43.600;1.480;2023-04-24T07:08:16;13.40;1.00
14924;DHT22;7554;43.600;1.480;2023-04-24T07:10:44;13.30;1.00
14924;DHT22;7554;43.600;1.480;2023-04-24T07:13:11;13.30;1.00
14924;DHT22;7554;43.600;1.480;2023-04-24T07:15:39;13.30;1.00
14924;DHT22;7554;43.600;1.480;2023-04-24T07:18:07;13.20;1.00
14924;DHT22;7554;43.600;1.480;2023-04-24T07:20:34;12.90;99.90
14924;DHT22;7554;43.600;1.480;2023-04-24T07:23:02;12.90;99.90
14924;DHT22;7554;43.600;1.480;2023-04-24T07:25:31;13.00;99.90
14924;DHT22;7554;43.600;1.480;2023-04-24T07:27:58;12.90;99.90
14924;DHT22;7554;43.600;1.480;2023-04-24T07:30:25;12.90;1.00
14924;DHT22;7554;43.600;1.480;2023-04-24T07:32:54;12.70;99.90
14924;DHT22;7554;43.600;1.480;2023-04-24T07:35:26;12.60;1.00
14924;DHT22;7554;43.600;1.480;2023-04-24T07:37:53;12.80;1.00
14924;DHT22;7554;43.600;1.480;2023-04-24T07:40:25;12.70;1.00
14924;DHT22;7554;43.600;1.480;2023-04-24T07:42:54;12.90;1.00
14924;DHT22;7554;43.600;1.480;2023-04-24T07:45:22;12.90;1.00
14924;DHT22;7554;43.600;1.480;2023-04-24T07:47:54;13.20;99.90
14924;DHT22;7554;43.600;1.480;2023-04-24T07:50:22;13.30;37.90
14924;DHT22;7554;43.600;1.480;2023-04-24T07:52:49;13.20;1.00
14924;DHT22;7554;43.600;1.480;2023-04-24T07:55:17;12.90;99.90
14924;DHT22;7554;43.600;1.480;2023-04-24T07:57:44;13.00;99.90
14924;DHT22;7554;43.600;1.480;2023-04-24T08:00:14;13.20;1.00
14924;DHT22;7554;43.600;1.480;2023-04-24T08:02:41;14.00;99.90
14924;DHT22;7554;43.600;1.480;2023-04-24T08:05:08;14.60;99.90
14924;DHT22;7554;43.600;1.480;2023-04-24T08:07:36;14.70;99.90
14924;DHT22;7554;43.600;1.480;2023-04-24T08:10:04;15.00;99.90
14924;DHT22;7554;43.600;1.480;2023-04-24T08:12:31;14.90;99.90
14924;DHT22;7554;43.600;1.480;2023-04-24T08:14:59;15.00;99.90
14924;DHT22;7554;43.600;1.480;2023-04-24T08:17:27;15.60;1.00
14924;DHT22;7554;43.600;1.480;2023-04-24T08:19:55;16.00;1.00
14924;DHT22;7554;43.600;1.480;2023-04-24T08:22:27;18.60;1.00
14924;DHT22;7554;43.600;1.480;2023-04-24T08:24:54;17.30;1.00
14924;DHT22;7554;43.600;1.480;2023-04-24T08:27:22;16.70;1.00
14924;DHT22;7554;43.600;1.480;2023-04-24T08:29:52;16.20;1.00
14924;DHT22;7554;43.600;1.480;2023-04-24T08:32:19;15.90;1.00
14924;DHT22;7554;43.600;1.480;2023-04-24T08:34:48;16.90;99.90
14924;DHT22;7554;43.600;1.480;2023-04-24T08:37:16;16.80;99.90
14924;DHT22;7554;43.600;1.480;2023-04-24T08:39:43;16.70;3.30
14924;DHT22;7554;43.600;1.480;2023-04-24T08:42:11;16.50;1.00
14924;DHT22;7554;43.600;1.480;2023-04-24T08:44:41;15.90;1.00
14924;DHT22;7554;43.600;1.480;2023-04-24T08:47:08;15.80;1.00
14924;DHT22;7554;43.600;1.480;2023-04-24T08:49:37;16.60;1.00
14924;DHT22;7554;43.600;1.480;2023-04-24T08:52:06;20.60;1.00
14924;DHT22;7554;43.600;1.480;2023-04-24T08:54:34;24.50;1.00
14924;DHT22;7554;43.600;1.480;2023-04-24T08:57:02;25.20;1.00
14924;DHT22;7554;43.600;1.480;2023-04-24T08:59:30;22.30;1.00
14924;DHT22;7554;43.600;1.480;2023-04-24T09:01:58;21.50;1.00
14924;DHT22;7554;43.600;1.480;2023-04-24T09:04:27;20.10;1.00
14924;DHT22;7554;43.600;1.480;2023-04-24T09:06:57;20.50;1.00
14924;DHT22;7554;43.600;1.480;2023-04-24T09:09:26;20.20;1.00
14924;DHT22;7554;43.600;1.480;2023-04-24T09:11:56;20.60;1.00
14924;DHT22;7554;43.600;1.480;2023-04-24T09:14:25;19.40;1.00
14924;DHT22;7554;43.600;1.480;2023-04-24T09:16:53;18.70;1.00
14924;DHT22;7554;43.600;1.480;2023-04-24T09:19:21;18.10;1.00
14924;DHT22;7554;43.600;1.480;2023-04-24T09:21:48;17.20;1.00
14924;DHT22;7554;43.600;1.480;2023-04-24T09:24:16;16.60;1.00
14924;DHT22;7554;43.600;1.480;2023-04-24T09:26:47;16.10;1.00
14924;DHT22;7554;43.600;1.480;2023-04-24T09:29:15;16.20;1.00
14924;DHT22;7554;43.600;1.480;2023-04-24T09:31:43;16.50;1.00
14924;DHT22;7554;43.600;1.480;2023-04-24T09:34:11;16.60;1.00
14924;DHT22;7554;43.600;1.480;2023-04-24T09:36:41;16.50;1.00
14924;DHT22;7554;43.600;1.480;2023-04-24T09:39:11;16.40;1.00
14924;DHT22;7554;43.600;1.480;2023-04-24T09:41:44;16.50;1.00
14924;DHT22;7554;43.600;1.480;2023-04-24T09:44:15;16.40;1.00
14924;DHT22;7554;43.600;1.480;2023-04-24T09:46:43;16.60;1.00
14924;DHT22;7554;43.600;1.480;2023-04-24T09:49:12;16.90;1.00
14924;DHT22;7554;43.600;1.480;2023-04-24T09:51:40;17.70;1.00
14924;DHT22;7554;43.600;1.480;2023-04-24T09:54:14;18.30;1.00
14924;DHT22;7554;43.600;1.480;2023-04-24T09:56:44;18.70;1.00
14924;DHT22;7554;43.600;1.480;2023-04-24T09:59:14;18.70;1.00
14924;DHT22;7554;43.600;1.480;2023-04-24T10:01:41;19.30;1.00
14924;DHT22;7554;43.600;1.480;2023-04-24T10:04:17;19.40;1.00
14924;DHT22;7554;43.600;1.480;2023-04-24T10:06:45;19.20;1.00
14924;DHT22;7554;43.600;1.480;2023-04-24T10:09:14;18.50;1.00
14924;DHT22;7554;43.600;1.480;2023-04-24T10:11:43;18.20;1.00
14924;DHT22;7554;43.600;1.480;2023-04-24T10:14:15;17.90;1.00
14924;DHT22;7554;43.600;1.480;2023-04-24T10:16:43;17.60;1.00
14924;DHT22;7554;43.600;1.480;2023-04-24T10:19:13;17.50;1.00
14924;DHT22;7554;43.600;1.480;2023-04-24T10:21:41;17.70;1.00
14924;DHT22;7554;43.600;1.480;2023-04-24T10:24:12;17.70;1.00
14924;DHT22;7554;43.600;1.480;2023-04-24T10:26:41;17.90;1.00
14924;DHT22;7554;43.600;1.480;2023-04-24T10:29:08;17.90;1.00
14924;DHT22;7554;43.600;1.480;2023-04-24T10:31:39;18.40;1.00
14924;DHT22;7554;43.600;1.480;2023-04-24T10:34:08;18.50;1.00
14924;DHT22;7554;43.600;1.480;2023-04-24T10:36:38;19.00;1.00
14924;DHT22;7554;43.600;1.480;2023-04-24T10:39:09;19.70;1.00
14924;DHT22;7554;43.600;1.480;2023-04-24T10:41:38;19.30;1.00
14924;DHT22;7554;43.600;1.480;2023-04-24T10:44:06;19.50;1.00
14924;DHT22;7554;43.600;1.480;2023-04-24T10:46:33;19.80;1.00
14924;DHT22;7554;43.600;1.480;2023-04-24T10:49:05;19.70;1.00
14924;DHT22;7554;43.600;1.480;2023-04-24T10:51:46;19.60;1.00
14924;DHT22;7554;43.600;1.480;2023-04-24T10:54:34;19.50;1.00
14924;DHT22;7554;43.600;1.480;2023-04-24T10:57:27;19.20;1.00
14924;DHT22;7554;43.600;1.480;2023-04-24T11:00:16;18.90;1.00
14924;DHT22;7554;43.600;1.480;2023-04-24T11:02:46;18.60;1.00
14924;DHT22;7554;43.600;1.480;2023-04-24T11:05:18;18.30;1.00
14924;DHT22;7554;43.600;1.480;2023-04-24T11:08:10;17.90;1.00
14924;DHT22;7554;43.600;1.480;2023-04-24T11:10:39;17.80;1.00
14924;DHT22;7554;43.600;1.480;2023-04-24T11:13:07;17.60;1.00
14924;DHT22;7554;43.600;1.480;2023-04-24T11:15:35;17.50;1.00
14924;DHT22;7554;43.600;1.480;2023-04-24T11:18:03;17.50;1.00
14924;DHT22;7554;43.600;1.480;2023-04-24T11:20:31;17.70;1.00
14924;DHT22;7554;43.600;1.480;2023-04-24T11:23:03;17.80;1.00
14924;DHT22;7554;43.600;1.480;2023-04-24T11:25:32;18.00;1.00
14924;DHT22;7554;43.600;1.480;2023-04-24T11:28:04;18.20;1.00
14924;DHT22;7554;43.600;1.480;2023-04-24T11:30:32;17.90;1.00
14924;DHT22;7554;43.600;1.480;2023-04-24T11:33:05;17.90;1.00
14924;DHT22;7554;43.600;1.480;2023-04-24T11:35:39;18.00;1.00
14924;DHT22;7554;43.600;1.480;2023-04-24T11:38:07;17.90;1.00
14924;DHT22;7554;43.600;1.480;2023-04-24T11:40:34;17.90;1.00
14924;DHT22;7554;43.600;1.480;2023-04-24T11:43:04;17.80;1.00
14924;DHT22;7554;43.600;1.480;2023-04-24T11:45:32;17.80;1.00
14924;DHT22;7554;43.600;1.480;2023-04-24T11:47:59;18.00;1.00
14924;DHT22;7554;43.600;1.480;2023-04-24T11:50:27;18.50;1.00
14924;DHT22;7554;43.600;1.480;2023-04-24T11:52:56;18.90;1.00
14924;DHT22;7554;43.600;1.480;2023-04-24T11:55:28;19.20;1.00
14924;DHT22;7554;43.600;1.480;2023-04-24T11:57:57;19.30;1.00
14924;DHT22;7554;43.600;1.480;2023-04-24T12:00:25;19.40;1.00
14924;DHT22;7554;43.600;1.480;2023-04-24T12:03:04;19.60;1.00
14924;DHT22;7554;43.600;1.480;2023-04-24T12:05:32;19.70;1.00
14924;DHT22;7554;43.600;1.480;2023-04-24T12:08:02;19.40;1.00
14924;DHT22;7554;43.600;1.480;2023-04-24T12:10:30;19.50;1.00
14924;DHT22;7554;43.600;1.480;2023-04-24T12:12:59;19.70;1.00
14924;DHT22;7554;43.600;1.480;2023-04-24T12:15:26;19.90;1.00
14924;DHT22;7554;43.600;1.480;2023-04-24T12:17:55;19.80;1.00
14924;DHT22;7554;43.600;1.480;2023-04-24T12:20:26;19.50;1.00
14924;DHT22;7554;43.600;1.480;2023-04-24T12:22:55;19.60;1.00
14924;DHT22;7554;43.600;1.480;2023-04-24T12:25:25;19.50;1.00
14924;DHT22;7554;43.600;1.480;2023-04-24T12:27:54;19.10;1.00
14924;DHT22;7554;43.600;1.480;2023-04-24T12:30:27;18.90;1.00
14924;DHT22;7554;43.600;1.480;2023-04-24T12:32:57;18.90;1.00
14924;DHT22;7554;43.600;1.480;2023-04-24T12:35:26;18.90;1.00
14924;DHT22;7554;43.600;1.480;2023-04-24T12:37:54;19.00;1.00
14924;DHT22;7554;43.600;1.480;2023-04-24T12:40:24;19.10;1.00
14924;DHT22;7554;43.600;1.480;2023-04-24T12:42:52;19.50;1.00
14924;DHT22;7554;43.600;1.480;2023-04-24T12:45:19;19.70;1.00
14924;DHT22;7554;43.600;1.480;2023-04-24T12:47:49;19.60;1.00
14924;DHT22;7554;43.600;1.480;2023-04-24T12:50:16;19.50;1.00
14924;DHT22;7554;43.600;1.480;2023-04-24T12:52:45;19.30;1.00
14924;DHT22;7554;43.600;1.480;2023-04-24T12:55:13;19.30;1.00
14924;DHT22;7554;43.600;1.480;2023-04-24T12:57:42;19.20;1.00
14924;DHT22;7554;43.600;1.480;2023-04-24T13:00:10;19.10;1.00
14924;DHT22;7554;43.600;1.480;2023-04-24T13:02:37;19.40;1.00
14924;DHT22;7554;43.600;1.480;2023-04-24T13:05:06;19.70;1.00
14924;DHT22;7554;43.600;1.480;2023-04-24T13:07:33;19.60;1.00
14924;DHT22;7554;43.600;1.480;2023-04-24T13:10:01;19.20;1.00
14924;DHT22;7554;43.600;1.480;2023-04-24T13:12:28;19.60;1.00
14924;DHT22;7554;43.600;1.480;2023-04-24T13:14:58;19.50;1.00
14924;DHT22;7554;43.600;1.480;2023-04-24T13:17:25;19.80;1.00
14924;DHT22;7554;43.600;1.480;2023-04-24T13:19:54;19.80;1.00
14924;DHT22;7554;43.600;1.480;2023-04-24T13:22:22;20.20;1.00
14924;DHT22;7554;43.600;1.480;2023-04-24T13:24:49;20.50;1.00
14924;DHT22;7554;43.600;1.480;2023-04-24T13:27:17;20.40;1.00
14924;DHT22;7554;43.600;1.480;2023-04-24T13:29:44;20.20;1.00
14924;DHT22;7554;43.600;1.480;2023-04-24T13:32:13;19.90;1.00
14924;DHT22;7554;43.600;1.480;2023-04-24T13:34:41;19.50;1.00
14924;DHT22;7554;43.600;1.480;2023-04-24T13:37:08;20.00;1.00
14924;DHT22;7554;43.600;1.480;2023-04-24T13:39:35;19.80;1.00
14924;DHT22;7554;43.600;1.480;2023-04-24T13:42:03;19.80;1.00
14924;DHT22;7554;43.600;1.480;2023-04-24T13:44:30;19.90;1.00
14924;DHT22;7554;43.600;1.480;2023-04-24T13:46:58;20.20;1.00
14924;DHT22;7554;43.600;1.480;2023-04-24T13:49:27;20.10;1.00
14924;DHT22;7554;43.600;1.480;2023-04-24T13:51:55;20.40;1.00
14924;DHT22;7554;43.600;1.480;2023-04-24T13:54:23;20.20;1.00
14924;DHT22;7554;43.600;1.480;2023-04-24T13:56:51;20.00;1.00
14924;DHT22;7554;43.600;1.480;2023-04-24T13:59:19;19.80;1.00
14924;DHT22;7554;43.600;1.480;2023-04-24T14:01:47;20.10;1.00
14924;DHT22;7554;43.600;1.480;2023-04-24T14:04:14;19.40;1.00
14924;DHT22;7554;43.600;1.480;2023-04-24T14:06:43;19.30;1.00
14924;DHT22;7554;43.600;1.480;2023-04-24T14:09:11;19.50;1.00
14924;DHT22;7554;43.600;1.480;2023-04-24T14:11:38;20.10;1.00
14924;DHT22;7554;43.600;1.480;2023-04-24T14:14:06;20.30;1.00
14924;DHT22;7554;43.600;1.480;2023-04-24T14:16:34;20.50;1.00
14924;DHT22;7554;43.600;1.480;2023-04-24T14:19:01;20.80;1.00
14924;DHT22;7554;43.600;1.480;2023-04-24T14:21:28;20.70;1.00
14924;DHT22;7554;43.600;1.480;2023-04-24T14:23:57;20.60;1.00
14924;DHT22;7554;43.600;1.480;2023-04-24T14:26:24;20.70;1.00
14924;DHT22;7554;43.600;1.480;2023-04-24T14:28:52;20.80;1.00
14924;DHT22;7554;43.600;1.480;2023-04-24T14:31:20;20.80;1.00
14924;DHT22;7554;43.600;1.480;2023-04-24T14:33:48;20.90;1.00
14924;DHT22;7554;43.600;1.480;2023-04-24T14:36:15;20.80;1.00
14924;DHT22;7554;43.600;1.480;2023-04-24T14:38:42;20.60;1.00
14924;DHT22;7554;43.600;1.480;2023-04-24T14:41:11;20.50;1.00
14924;DHT22;7554;43.600;1.480;2023-04-24T14:43:39;20.30;1.00
14924;DHT22;7554;43.600;1.480;2023-04-24T14:46:06;20.20;1.00
14924;DHT22;7554;43.600;1.480;2023-04-24T14:48:33;20.10;1.00
14924;DHT22;7554;43.600;1.480;2023-04-24T14:51:01;19.90;1.00
14924;DHT22;7554;43.600;1.480;2023-04-24T14:53:28;19.80;1.00
14924;DHT22;7554;43.600;1.480;2023-04-24T14:55:55;20.00;1.00
14924;DHT22;7554;43.600;1.480;2023-04-24T14:58:24;20.20;1.00
14924;DHT22;7554;43.600;1.480;2023-04-24T15:00:52;20.40;1.00
14924;DHT22;7554;43.600;1.480;2023-04-24T15:03:20;20.20;1.00
14924;DHT22;7554;43.600;1.480;2023-04-24T15:05:48;20.40;1.00
14924;DHT22;7554;43.600;1.480;2023-04-24T15:08:16;20.20;1.00
14924;DHT22;7554;43.600;1.480;2023-04-24T15:10:43;20.00;1.00
14924;DHT22;7554;43.600;1.480;2023-04-24T15:13:11;19.90;1.00
14924;DHT22;7554;43.600;1.480;2023-04-24T15:15:40;19.90;1.00
14924;DHT22;7554;43.600;1.480;2023-04-24T15:18:08;20.10;1.00
14924;DHT22;7554;43.600;1.480;2023-04-24T15:20:37;20.20;1.00
14924;DHT22;7554;43.600;1.480;2023-04-24T15:23:08;20.50;1.00
14924;DHT22;7554;43.600;1.480;2023-04-24T15:25:36;20.10;1.00
14924;DHT22;7554;43.600;1.480;2023-04-24T15:28:04;20.20;1.00
14924;DHT22;7554;43.600;1.480;2023-04-24T15:30:32;20.20;1.00
14924;DHT22;7554;43.600;1.480;2023-04-24T15:33:01;20.00;1.00
14924;DHT22;7554;43.600;1.480;2023-04-24T15:35:29;19.90;1.00
14924;DHT22;7554;43.600;1.480;2023-04-24T15:37:56;19.90;1.00
14924;DHT22;7554;43.600;1.480;2023-04-24T15:40:23;20.00;1.00
14924;DHT22;7554;43.600;1.480;2023-04-24T15:42:51;20.20;1.00
14924;DHT22;7554;43.600;1.480;2023-04-24T15:45:18;20.40;1.00
14924;DHT22;7554;43.600;1.480;2023-04-24T15:47:45;20.10;1.00
14924;DHT22;7554;43.600;1.480;2023-04-24T15:50:17;20.10;1.00
14924;DHT22;7554;43.600;1.480;2023-04-24T15:52:48;19.90;1.00
14924;DHT22;7554;43.600;1.480;2023-04-24T15:55:17;19.90;1.00
14924;DHT22;7554;43.600;1.480;2023-04-24T15:57:45;19.80;1.00
14924;DHT22;7554;43.600;1.480;2023-04-24T16:00:14;19.70;1.00
14924;DHT22;7554;43.600;1.480;2023-04-24T16:02:41;19.60;1.00
14924;DHT22;7554;43.600;1.480;2023-04-24T16:05:09;19.60;1.00